sensor_id;sensor_type;location;lat;lon;timestamp;pressure;altitude;pressure_sealevel;temperature;humidity
76753;BME280;65687;51.308;16.916;2023-11-18T00:00:00;99866.75;;;3.09;98.84
76753;BME280;65687;51.308;16.916;2023-11-18T00:05:02;99868.17;;;3.08;99.06
76753;BME280;65687;51.308;16.916;2023-11-18T00:10:04;99870.70;;;3.09;99.00
76753;BME280;65687;51.308;16.916;2023-11-18T00:15:07;99869.41;;;3.09;99.51
76753;BME280;65687;51.308;16.916;2023-11-18T00:20:11;99868.58;;;3.09;99.46
76753;BME280;65687;51.308;16.916;2023-11-18T00:25:14;99871.95;;;3.12;99.66
76753;BME280;65687;51.308;16.916;2023-11-18T00:30:16;99876.10;;;3.14;99.69
76753;BME280;65687;51.308;16.916;2023-11-18T00:35:17;99881.11;;;3.13;99.82
76753;BME280;65687;51.308;16.916;2023-11-18T00:40:19;99884.96;;;3.14;99.87
76753;BME280;65687;51.308;16.916;2023-11-18T00:45:21;99889.30;;;3.13;99.86
76753;BME280;65687;51.308;16.916;2023-11-18T00:50:23;99890.59;;;3.13;100.00
76753;BME280;65687;51.308;16.916;2023-11-18T00:55:24;99899.02;;;3.16;100.00
76753;BME280;65687;51.308;16.916;2023-11-18T01:00:26;99906.69;;;3.17;100.00
76753;BME280;65687;51.308;16.916;2023-11-18T01:05:27;99918.33;;;3.20;100.00
76753;BME280;65687;51.308;16.916;2023-11-18T01:10:29;99922.05;;;3.23;99.98
76753;BME280;65687;51.308;16.916;2023-11-18T01:15:31;99931.16;;;3.25;100.00
76753;BME280;65687;51.308;16.916;2023-11-18T01:20:33;99939.73;;;3.26;99.97
76753;BME280;65687;51.308;16.916;2023-11-18T01:25:34;99945.02;;;3.25;99.88
76753;BME280;65687;51.308;16.916;2023-11-18T01:30:36;99950.34;;;3.24;99.84
76753;BME280;65687;51.308;16.916;2023-11-18T01:35:37;99955.92;;;3.19;99.80
76753;BME280;65687;51.308;16.916;2023-11-18T01:40:40;99960.17;;;3.17;99.78
76753;BME280;65687;51.308;16.916;2023-11-18T01:45:42;99967.39;;;3.14;99.73
76753;BME280;65687;51.308;16.916;2023-11-18T01:50:43;99963.33;;;3.11;99.72
76753;BME280;65687;51.308;16.916;2023-11-18T01:55:46;99972.27;;;3.08;99.86
76753;BME280;65687;51.308;16.916;2023-11-18T02:00:51;99973.82;;;3.07;99.87
76753;BME280;65687;51.308;16.916;2023-11-18T02:05:53;99977.44;;;3.08;99.77
76753;BME280;65687;51.308;16.916;2023-11-18T02:11:01;99989.55;;;3.09;99.91
76753;BME280;65687;51.308;16.916;2023-11-18T02:16:07;99999.52;;;3.13;99.96
76753;BME280;65687;51.308;16.916;2023-11-18T02:21:11;99998.94;;;3.15;99.85
76753;BME280;65687;51.308;16.916;2023-11-18T02:26:20;100002.45;;;3.17;99.94
76753;BME280;65687;51.308;16.916;2023-11-18T02:31:33;100012.48;;;3.17;99.86
76753;BME280;65687;51.308;16.916;2023-11-18T02:36:39;100021.65;;;3.17;99.76
76753;BME280;65687;51.308;16.916;2023-11-18T02:41:41;100027.42;;;3.16;99.81
76753;BME280;65687;51.308;16.916;2023-11-18T02:46:46;100034.52;;;3.15;99.82
76753;BME280;65687;51.308;16.916;2023-11-18T02:51:49;100039.34;;;3.15;99.93
76753;BME280;65687;51.308;16.916;2023-11-18T02:56:51;100048.03;;;3.14;99.90
76753;BME280;65687;51.308;16.916;2023-11-18T03:01:53;100055.71;;;3.14;99.97
76753;BME280;65687;51.308;16.916;2023-11-18T03:06:56;100061.36;;;3.14;99.98
76753;BME280;65687;51.308;16.916;2023-11-18T03:11:57;100071.87;;;3.12;99.95
76753;BME280;65687;51.308;16.916;2023-11-18T03:17:01;100075.50;;;3.04;99.77
76753;BME280;65687;51.308;16.916;2023-11-18T03:22:02;100083.36;;;2.96;99.66
76753;BME280;65687;51.308;16.916;2023-11-18T03:27:04;100091.52;;;2.89;99.32
76753;BME280;65687;51.308;16.916;2023-11-18T03:32:06;100100.42;;;2.83;99.55
76753;BME280;65687;51.308;16.916;2023-11-18T03:37:08;100102.39;;;2.78;99.64
76753;BME280;65687;51.308;16.916;2023-11-18T03:42:10;100099.86;;;2.73;99.74
76753;BME280;65687;51.308;16.916;2023-11-18T03:47:12;100106.17;;;2.71;99.80
76753;BME280;65687;51.308;16.916;2023-11-18T03:52:13;100110.72;;;2.69;99.84
76753;BME280;65687;51.308;16.916;2023-11-18T03:57:15;100113.94;;;2.66;99.70
76753;BME280;65687;51.308;16.916;2023-11-18T04:02:17;100116.58;;;2.66;99.83
76753;BME280;65687;51.308;16.916;2023-11-18T04:07:18;100126.45;;;2.66;99.64
76753;BME280;65687;51.308;16.916;2023-11-18T04:12:20;100131.12;;;2.66;99.34
76753;BME280;65687;51.308;16.916;2023-11-18T04:17:21;100127.70;;;2.66;99.51
76753;BME280;65687;51.308;16.916;2023-11-18T04:22:23;100133.31;;;2.65;99.62
76753;BME280;65687;51.308;16.916;2023-11-18T04:27:25;100135.50;;;2.62;99.52
76753;BME280;65687;51.308;16.916;2023-11-18T04:32:27;100140.51;;;2.59;99.61
76753;BME280;65687;51.308;16.916;2023-11-18T04:37:28;100149.91;;;2.58;99.66
76753;BME280;65687;51.308;16.916;2023-11-18T04:42:30;100147.41;;;2.58;99.73
76753;BME280;65687;51.308;16.916;2023-11-18T04:47:31;100150.82;;;2.54;99.64
76753;BME280;65687;51.308;16.916;2023-11-18T04:52:33;100152.92;;;2.51;99.57
76753;BME280;65687;51.308;16.916;2023-11-18T04:57:36;100154.98;;;2.50;99.86
76753;BME280;65687;51.308;16.916;2023-11-18T05:02:40;100165.02;;;2.49;99.80
76753;BME280;65687;51.308;16.916;2023-11-18T05:07:43;100167.73;;;2.50;99.89
76753;BME280;65687;51.308;16.916;2023-11-18T05:12:44;100170.70;;;2.49;99.88
76753;BME280;65687;51.308;16.916;2023-11-18T05:17:46;100173.36;;;2.47;99.96
76753;BME280;65687;51.308;16.916;2023-11-18T05:22:47;100179.41;;;2.46;99.89
76753;BME280;65687;51.308;16.916;2023-11-18T05:27:49;100180.30;;;2.47;99.99
76753;BME280;65687;51.308;16.916;2023-11-18T05:32:51;100189.53;;;2.46;99.90
76753;BME280;65687;51.308;16.916;2023-11-18T05:37:54;100195.35;;;2.46;99.98
76753;BME280;65687;51.308;16.916;2023-11-18T05:42:56;100195.14;;;2.45;99.99
76753;BME280;65687;51.308;16.916;2023-11-18T05:48:00;100189.73;;;2.46;99.96
76753;BME280;65687;51.308;16.916;2023-11-18T05:53:01;100193.42;;;2.46;99.87
76753;BME280;65687;51.308;16.916;2023-11-18T06:46:32;100244.21;;;2.43;99.92
76753;BME280;65687;51.308;16.916;2023-11-18T06:51:41;100249.75;;;2.43;99.83
76753;BME280;65687;51.308;16.916;2023-11-18T06:56:43;100253.98;;;2.44;99.85
76753;BME280;65687;51.308;16.916;2023-11-18T07:01:46;100260.75;;;2.46;99.91
76753;BME280;65687;51.308;16.916;2023-11-18T07:06:49;100270.30;;;2.50;99.74
76753;BME280;65687;51.308;16.916;2023-11-18T07:11:51;100280.48;;;2.55;99.65
76753;BME280;65687;51.308;16.916;2023-11-18T07:16:53;100280.45;;;2.61;99.61
76753;BME280;65687;51.308;16.916;2023-11-18T07:21:55;100281.80;;;2.64;99.38
76753;BME280;65687;51.308;16.916;2023-11-18T07:26:58;100285.17;;;2.66;99.26
76753;BME280;65687;51.308;16.916;2023-11-18T07:32:01;100287.88;;;2.70;99.24
76753;BME280;65687;51.308;16.916;2023-11-18T07:37:07;100292.22;;;2.74;99.31
76753;BME280;65687;51.308;16.916;2023-11-18T07:42:13;100294.45;;;2.75;99.25
76753;BME280;65687;51.308;16.916;2023-11-18T07:47:15;100296.34;;;2.76;98.98
76753;BME280;65687;51.308;16.916;2023-11-18T07:52:18;100298.52;;;2.80;98.98
76753;BME280;65687;51.308;16.916;2023-11-18T07:57:20;100298.96;;;2.82;98.93
76753;BME280;65687;51.308;16.916;2023-11-18T08:02:22;100308.50;;;2.85;98.87
76753;BME280;65687;51.308;16.916;2023-11-18T08:07:24;100313.88;;;2.88;98.80
76753;BME280;65687;51.308;16.916;2023-11-18T08:12:26;100319.45;;;2.91;98.76
76753;BME280;65687;51.308;16.916;2023-11-18T08:17:28;100323.66;;;2.94;98.79
76753;BME280;65687;51.308;16.916;2023-11-18T08:22:29;100328.58;;;2.94;98.79
76753;BME280;65687;51.308;16.916;2023-11-18T08:27:32;100327.12;;;2.93;98.65
76753;BME280;65687;51.308;16.916;2023-11-18T08:32:34;100327.18;;;2.93;98.51
76753;BME280;65687;51.308;16.916;2023-11-18T08:44:02;100339.73;;;3.00;98.51
76753;BME280;65687;51.308;16.916;2023-11-18T08:49:04;100346.02;;;3.03;98.51
76753;BME280;65687;51.308;16.916;2023-11-18T08:54:12;100358.88;;;3.06;98.59
76753;BME280;65687;51.308;16.916;2023-11-18T08:59:33;100367.84;;;3.11;98.68
76753;BME280;65687;51.308;16.916;2023-11-18T09:10:50;100391.69;;;3.19;98.20
76753;BME280;65687;51.308;16.916;2023-11-18T09:15:59;100403.39;;;3.21;98.04
76753;BME280;65687;51.308;16.916;2023-11-18T09:21:05;100408.60;;;3.22;97.93
76753;BME280;65687;51.308;16.916;2023-11-18T09:26:08;100413.25;;;3.24;97.62
76753;BME280;65687;51.308;16.916;2023-11-18T09:31:28;100413.27;;;3.28;97.54
76753;BME280;65687;51.308;16.916;2023-11-18T09:36:29;100411.43;;;3.29;97.16
76753;BME280;65687;51.308;16.916;2023-11-18T09:41:31;100414.05;;;3.32;97.05
76753;BME280;65687;51.308;16.916;2023-11-18T09:46:35;100407.89;;;3.34;96.57
76753;BME280;65687;51.308;16.916;2023-11-18T09:51:43;100410.48;;;3.37;96.36
76753;BME280;65687;51.308;16.916;2023-11-18T09:57:06;100412.65;;;3.42;96.43
76753;BME280;65687;51.308;16.916;2023-11-18T10:02:14;100408.80;;;3.49;96.41
76753;BME280;65687;51.308;16.916;2023-11-18T10:07:17;100410.18;;;3.56;96.11
76753;BME280;65687;51.308;16.916;2023-11-18T10:12:20;100408.59;;;3.62;95.95
76753;BME280;65687;51.308;16.916;2023-11-18T10:17:25;100420.95;;;3.70;95.89
76753;BME280;65687;51.308;16.916;2023-11-18T10:22:28;100424.58;;;3.75;95.47
76753;BME280;65687;51.308;16.916;2023-11-18T10:27:30;100436.46;;;3.76;95.01
76753;BME280;65687;51.308;16.916;2023-11-18T10:32:33;100443.77;;;3.76;94.65
76753;BME280;65687;51.308;16.916;2023-11-18T10:37:36;100446.52;;;3.76;94.50
76753;BME280;65687;51.308;16.916;2023-11-18T10:42:44;100451.67;;;3.76;94.15
76753;BME280;65687;51.308;16.916;2023-11-18T10:47:50;100457.61;;;3.77;94.05
76753;BME280;65687;51.308;16.916;2023-11-18T10:52:52;100462.01;;;3.77;93.95
76753;BME280;65687;51.308;16.916;2023-11-18T10:57:57;100461.64;;;3.79;94.16
76753;BME280;65687;51.308;16.916;2023-11-18T11:02:59;100458.73;;;3.82;93.91
76753;BME280;65687;51.308;16.916;2023-11-18T11:08:02;100458.63;;;3.84;93.64
76753;BME280;65687;51.308;16.916;2023-11-18T11:13:07;100458.91;;;3.89;93.72
76753;BME280;65687;51.308;16.916;2023-11-18T11:18:11;100470.52;;;3.93;93.48
76753;BME280;65687;51.308;16.916;2023-11-18T11:23:37;100473.60;;;3.90;93.61
76753;BME280;65687;51.308;16.916;2023-11-18T11:28:58;100475.92;;;3.80;93.83
76753;BME280;65687;51.308;16.916;2023-11-18T11:34:14;100483.35;;;3.74;94.03
76753;BME280;65687;51.308;16.916;2023-11-18T11:39:19;100486.64;;;3.67;94.02
76753;BME280;65687;51.308;16.916;2023-11-18T11:44:27;100481.37;;;3.61;94.00
76753;BME280;65687;51.308;16.916;2023-11-18T11:49:36;100489.20;;;3.61;94.15
76753;BME280;65687;51.308;16.916;2023-11-18T12:00:22;100489.03;;;3.68;94.35
76753;BME280;65687;51.308;16.916;2023-11-18T12:05:27;100481.13;;;3.77;94.25
76753;BME280;65687;51.308;16.916;2023-11-18T12:10:32;100475.66;;;3.94;94.38
76753;BME280;65687;51.308;16.916;2023-11-18T12:15:54;100468.97;;;4.05;93.77
76753;BME280;65687;51.308;16.916;2023-11-18T12:20:58;100457.90;;;4.12;93.41
76753;BME280;65687;51.308;16.916;2023-11-18T12:26:38;100463.94;;;4.07;92.81
76753;BME280;65687;51.308;16.916;2023-11-18T12:31:45;100477.28;;;4.00;92.81
76753;BME280;65687;51.308;16.916;2023-11-18T12:36:59;100487.06;;;3.99;92.95
76753;BME280;65687;51.308;16.916;2023-11-18T12:42:09;100494.54;;;4.04;93.18
76753;BME280;65687;51.308;16.916;2023-11-18T12:47:17;100499.98;;;4.03;92.01
76753;BME280;65687;51.308;16.916;2023-11-18T12:52:23;100496.61;;;4.03;92.18
76753;BME280;65687;51.308;16.916;2023-11-18T12:57:29;100495.39;;;4.04;92.09
76753;BME280;65687;51.308;16.916;2023-11-18T13:02:32;100496.98;;;4.00;91.50
76753;BME280;65687;51.308;16.916;2023-11-18T13:07:34;100501.39;;;3.94;91.87
76753;BME280;65687;51.308;16.916;2023-11-18T13:12:38;100500.77;;;3.94;92.18
76753;BME280;65687;51.308;16.916;2023-11-18T13:17:40;100498.45;;;3.93;92.47
76753;BME280;65687;51.308;16.916;2023-11-18T13:22:44;100491.52;;;3.92;92.40
76753;BME280;65687;51.308;16.916;2023-11-18T13:27:46;100496.35;;;3.92;92.50
76753;BME280;65687;51.308;16.916;2023-11-18T13:32:48;100502.13;;;3.91;92.67
76753;BME280;65687;51.308;16.916;2023-11-18T13:37:50;100499.98;;;3.88;92.42
76753;BME280;65687;51.308;16.916;2023-11-18T13:43:02;100502.40;;;3.85;93.02
76753;BME280;65687;51.308;16.916;2023-11-18T13:48:11;100504.82;;;3.86;93.30
76753;BME280;65687;51.308;16.916;2023-11-18T13:53:13;100500.70;;;3.87;93.07
76753;BME280;65687;51.308;16.916;2023-11-18T13:58:17;100499.01;;;3.88;93.05
76753;BME280;65687;51.308;16.916;2023-11-18T14:03:18;100495.17;;;3.88;92.99
76753;BME280;65687;51.308;16.916;2023-11-18T14:08:20;100490.75;;;3.88;92.96
76753;BME280;65687;51.308;16.916;2023-11-18T14:13:22;100481.78;;;3.85;93.27
76753;BME280;65687;51.308;16.916;2023-11-18T14:18:23;100488.61;;;3.86;93.53
76753;BME280;65687;51.308;16.916;2023-11-18T14:23:25;100493.77;;;3.86;93.15
76753;BME280;65687;51.308;16.916;2023-11-18T14:28:26;100497.18;;;3.82;93.14
76753;BME280;65687;51.308;16.916;2023-11-18T14:33:30;100505.46;;;3.81;93.33
76753;BME280;65687;51.308;16.916;2023-11-18T14:38:34;100511.23;;;3.81;93.38
76753;BME280;65687;51.308;16.916;2023-11-18T14:43:36;100511.11;;;3.78;93.30
76753;BME280;65687;51.308;16.916;2023-11-18T14:48:38;100507.02;;;3.72;93.19
76753;BME280;65687;51.308;16.916;2023-11-18T14:53:39;100508.64;;;3.68;92.81
76753;BME280;65687;51.308;16.916;2023-11-18T14:58:41;100510.37;;;3.67;92.65
76753;BME280;65687;51.308;16.916;2023-11-18T15:03:43;100511.45;;;3.68;92.74
76753;BME280;65687;51.308;16.916;2023-11-18T15:08:44;100520.66;;;3.70;93.15
76753;BME280;65687;51.308;16.916;2023-11-18T15:13:46;100524.31;;;3.66;92.79
76753;BME280;65687;51.308;16.916;2023-11-18T15:18:48;100517.82;;;3.60;92.88
76753;BME280;65687;51.308;16.916;2023-11-18T15:23:53;100516.67;;;3.56;92.89
76753;BME280;65687;51.308;16.916;2023-11-18T15:29:00;100514.29;;;3.55;93.12
76753;BME280;65687;51.308;16.916;2023-11-18T15:34:04;100517.11;;;3.52;93.36
76753;BME280;65687;51.308;16.916;2023-11-18T15:39:05;100512.43;;;3.52;93.32
76753;BME280;65687;51.308;16.916;2023-11-18T15:44:08;100506.59;;;3.52;93.57
76753;BME280;65687;51.308;16.916;2023-11-18T15:49:10;100510.16;;;3.52;93.77
76753;BME280;65687;51.308;16.916;2023-11-18T15:54:13;100515.17;;;3.52;93.39
76753;BME280;65687;51.308;16.916;2023-11-18T15:59:16;100513.27;;;3.48;93.45
76753;BME280;65687;51.308;16.916;2023-11-18T16:04:18;100511.91;;;3.48;93.76
76753;BME280;65687;51.308;16.916;2023-11-18T16:09:20;100515.29;;;3.52;93.62
76753;BME280;65687;51.308;16.916;2023-11-18T16:14:22;100520.31;;;3.54;93.52
76753;BME280;65687;51.308;16.916;2023-11-18T16:19:23;100528.30;;;3.53;93.38
76753;BME280;65687;51.308;16.916;2023-11-18T16:24:25;100526.20;;;3.52;93.76
76753;BME280;65687;51.308;16.916;2023-11-18T16:29:27;100515.16;;;3.46;93.93
76753;BME280;65687;51.308;16.916;2023-11-18T16:34:28;100509.70;;;3.32;94.43
76753;BME280;65687;51.308;16.916;2023-11-18T16:39:31;100510.61;;;3.28;94.89
76753;BME280;65687;51.308;16.916;2023-11-18T16:44:33;100524.84;;;3.28;94.57
76753;BME280;65687;51.308;16.916;2023-11-18T16:49:34;100521.11;;;3.29;94.26
76753;BME280;65687;51.308;16.916;2023-11-18T16:54:36;100516.31;;;3.27;94.33
76753;BME280;65687;51.308;16.916;2023-11-18T16:59:38;100516.27;;;3.27;94.59
76753;BME280;65687;51.308;16.916;2023-11-18T17:04:39;100513.05;;;3.30;94.78
76753;BME280;65687;51.308;16.916;2023-11-18T17:09:41;100513.48;;;3.33;94.79
76753;BME280;65687;51.308;16.916;2023-11-18T17:14:43;100512.41;;;3.32;94.68
76753;BME280;65687;51.308;16.916;2023-11-18T17:19:44;100523.59;;;3.32;94.81
76753;BME280;65687;51.308;16.916;2023-11-18T17:24:46;100526.83;;;3.32;94.65
76753;BME280;65687;51.308;16.916;2023-11-18T17:29:47;100531.05;;;3.30;94.30
76753;BME280;65687;51.308;16.916;2023-11-18T17:34:49;100523.94;;;3.21;93.79
76753;BME280;65687;51.308;16.916;2023-11-18T17:39:51;100523.38;;;3.14;94.00
76753;BME280;65687;51.308;16.916;2023-11-18T17:44:52;100512.73;;;3.08;94.42
76753;BME280;65687;51.308;16.916;2023-11-18T17:49:54;100500.92;;;3.04;94.76
76753;BME280;65687;51.308;16.916;2023-11-18T17:54:55;100498.39;;;2.94;94.79
76753;BME280;65687;51.308;16.916;2023-11-18T17:59:57;100492.80;;;2.89;94.97
76753;BME280;65687;51.308;16.916;2023-11-18T18:04:59;100498.30;;;2.88;95.23
76753;BME280;65687;51.308;16.916;2023-11-18T18:10:01;100504.58;;;2.90;95.76
76753;BME280;65687;51.308;16.916;2023-11-18T18:15:04;100491.73;;;2.94;96.20
76753;BME280;65687;51.308;16.916;2023-11-18T18:20:09;100481.77;;;2.93;96.06
76753;BME280;65687;51.308;16.916;2023-11-18T18:25:11;100488.52;;;2.91;96.33
76753;BME280;65687;51.308;16.916;2023-11-18T18:30:13;100480.77;;;2.91;96.48
76753;BME280;65687;51.308;16.916;2023-11-18T18:35:15;100473.77;;;2.87;96.41
76753;BME280;65687;51.308;16.916;2023-11-18T18:40:17;100472.44;;;2.90;96.59
76753;BME280;65687;51.308;16.916;2023-11-18T18:45:24;100469.27;;;2.87;96.41
76753;BME280;65687;51.308;16.916;2023-11-18T18:50:25;100465.05;;;2.85;96.70
76753;BME280;65687;51.308;16.916;2023-11-18T18:55:27;100460.31;;;2.85;96.54
76753;BME280;65687;51.308;16.916;2023-11-18T19:00:29;100450.59;;;2.85;96.52
76753;BME280;65687;51.308;16.916;2023-11-18T19:05:30;100447.33;;;2.88;96.52
76753;BME280;65687;51.308;16.916;2023-11-18T19:10:32;100443.28;;;2.84;96.38
76753;BME280;65687;51.308;16.916;2023-11-18T19:15:34;100446.17;;;2.80;96.25
76753;BME280;65687;51.308;16.916;2023-11-18T19:20:37;100449.86;;;2.80;96.23
76753;BME280;65687;51.308;16.916;2023-11-18T19:25:39;100448.42;;;2.81;96.20
76753;BME280;65687;51.308;16.916;2023-11-18T19:30:41;100446.98;;;2.81;96.01
76753;BME280;65687;51.308;16.916;2023-11-18T19:35:42;100430.77;;;2.78;96.10
76753;BME280;65687;51.308;16.916;2023-11-18T19:40:44;100418.81;;;2.71;96.20
76753;BME280;65687;51.308;16.916;2023-11-18T19:45:45;100422.15;;;2.72;96.22
76753;BME280;65687;51.308;16.916;2023-11-18T19:50:51;100405.83;;;2.72;96.30
76753;BME280;65687;51.308;16.916;2023-11-18T19:55:54;100391.83;;;2.69;96.55
76753;BME280;65687;51.308;16.916;2023-11-18T20:00:56;100386.42;;;2.65;96.80
76753;BME280;65687;51.308;16.916;2023-11-18T20:05:57;100380.70;;;2.61;96.87
76753;BME280;65687;51.308;16.916;2023-11-18T20:10:59;100379.13;;;2.57;97.18
76753;BME280;65687;51.308;16.916;2023-11-18T20:16:01;100381.27;;;2.54;97.40
76753;BME280;65687;51.308;16.916;2023-11-18T20:21:05;100382.77;;;2.52;97.39
76753;BME280;65687;51.308;16.916;2023-11-18T20:26:07;100368.38;;;2.49;97.92
76753;BME280;65687;51.308;16.916;2023-11-18T20:31:10;100360.80;;;2.48;97.98
76753;BME280;65687;51.308;16.916;2023-11-18T20:36:12;100346.66;;;2.47;98.30
76753;BME280;65687;51.308;16.916;2023-11-18T20:41:14;100347.42;;;2.44;98.40
76753;BME280;65687;51.308;16.916;2023-11-18T20:46:16;100344.84;;;2.42;98.35
76753;BME280;65687;51.308;16.916;2023-11-18T20:51:17;100343.89;;;2.41;98.43
76753;BME280;65687;51.308;16.916;2023-11-18T20:56:19;100344.65;;;2.39;98.18
76753;BME280;65687;51.308;16.916;2023-11-18T21:01:23;100341.60;;;2.33;98.15
76753;BME280;65687;51.308;16.916;2023-11-18T21:06:25;100337.08;;;2.31;98.32
76753;BME280;65687;51.308;16.916;2023-11-18T21:11:26;100329.50;;;2.31;97.93
76753;BME280;65687;51.308;16.916;2023-11-18T21:16:28;100331.63;;;2.29;98.23
76753;BME280;65687;51.308;16.916;2023-11-18T21:21:33;100322.92;;;2.28;97.83
76753;BME280;65687;51.308;16.916;2023-11-18T21:26:34;100313.66;;;2.24;97.94
76753;BME280;65687;51.308;16.916;2023-11-18T21:31:36;100313.63;;;2.24;97.92
76753;BME280;65687;51.308;16.916;2023-11-18T21:36:37;100302.80;;;2.24;97.83
76753;BME280;65687;51.308;16.916;2023-11-18T21:41:40;100298.35;;;2.25;97.72
76753;BME280;65687;51.308;16.916;2023-11-18T21:46:42;100288.90;;;2.22;97.62
76753;BME280;65687;51.308;16.916;2023-11-18T21:51:46;100284.26;;;2.16;97.65
76753;BME280;65687;51.308;16.916;2023-11-18T21:56:48;100272.81;;;2.15;98.05
76753;BME280;65687;51.308;16.916;2023-11-18T22:01:49;100272.87;;;2.12;97.88
76753;BME280;65687;51.308;16.916;2023-11-18T22:06:51;100259.89;;;2.11;98.13
76753;BME280;65687;51.308;16.916;2023-11-18T22:11:53;100269.67;;;2.10;98.22
76753;BME280;65687;51.308;16.916;2023-11-18T22:16:55;100266.05;;;2.08;98.28
76753;BME280;65687;51.308;16.916;2023-11-18T22:21:56;100260.89;;;2.05;98.19
76753;BME280;65687;51.308;16.916;2023-11-18T22:26:59;100259.19;;;2.04;98.15
76753;BME280;65687;51.308;16.916;2023-11-18T22:32:00;100255.58;;;2.02;98.07
76753;BME280;65687;51.308;16.916;2023-11-18T22:37:02;100256.45;;;1.97;98.12
76753;BME280;65687;51.308;16.916;2023-11-18T22:42:04;100261.42;;;1.92;98.11
76753;BME280;65687;51.308;16.916;2023-11-18T22:47:06;100255.91;;;1.88;98.15
76753;BME280;65687;51.308;16.916;2023-11-18T22:52:08;100252.15;;;1.86;98.16
76753;BME280;65687;51.308;16.916;2023-11-18T22:57:10;100238.74;;;1.88;98.38
76753;BME280;65687;51.308;16.916;2023-11-18T23:02:12;100231.34;;;1.91;98.21
76753;BME280;65687;51.308;16.916;2023-11-18T23:07:17;100209.74;;;1.91;98.52
76753;BME280;65687;51.308;16.916;2023-11-18T23:12:19;100205.30;;;1.89;98.62
76753;BME280;65687;51.308;16.916;2023-11-18T23:17:22;100198.04;;;1.88;98.65
76753;BME280;65687;51.308;16.916;2023-11-18T23:22:24;100189.17;;;1.89;98.87
76753;BME280;65687;51.308;16.916;2023-11-18T23:27:26;100183.48;;;1.87;99.09
76753;BME280;65687;51.308;16.916;2023-11-18T23:32:27;100180.38;;;1.86;99.07
76753;BME280;65687;51.308;16.916;2023-11-18T23:37:29;100182.98;;;1.87;99.22
76753;BME280;65687;51.308;16.916;2023-11-18T23:42:31;100174.88;;;1.86;99.06
76753;BME280;65687;51.308;16.916;2023-11-18T23:47:33;100176.05;;;1.83;99.17
76753;BME280;65687;51.308;16.916;2023-11-18T23:52:35;100173.67;;;1.81;99.25
76753;BME280;65687;51.308;16.916;2023-11-18T23:57:37;100156.05;;;1.78;99.37
